Time;durP1;ratioP1;P1;durP2;ratioP2;P2;SDS_P1;SDS_P2;PMS_P1;PMS_P2;Temp;Humidity;BMP_temperature;BMP_pressure;BME280_temperature;BME280_humidity;BME280_pressure;Samples;Min_cycle;Max_cycle;Signal;HPM_P1;HPM_P2
2021/11/04 00:00:23;;;;;;;15.68;10.88;;;4.90;99.90;;;;;;5078425;28;20032;-74
2021/11/04 00:02:49;;;;;;;14.90;9.65;;;4.90;99.90;;;;;;5095233;28;20210;-73
2021/11/04 00:05:15;;;;;;;14.52;9.93;;;4.90;99.90;;;;;;5096813;28;20102;-75
2021/11/04 00:07:41;;;;;;;17.35;10.05;;;4.70;99.90;;;;;;5077970;28;20020;-75
2021/11/04 00:10:09;;;;;;;16.98;10.88;;;4.70;99.90;;;;;;5095019;28;20024;-75
2021/11/04 00:12:35;;;;;;;13.68;9.02;;;4.70;99.90;;;;;;5077966;28;20397;-74
2021/11/04 00:15:02;;;;;;;14.60;9.00;;;4.70;99.90;;;;;;5094784;28;20140;-75
2021/11/04 00:17:28;;;;;;;13.70;9.77;;;4.70;99.90;;;;;;5077827;28;20589;-74
2021/11/04 00:19:53;;;;;;;12.40;8.30;;;4.70;99.90;;;;;;5094709;28;20131;-76
2021/11/04 00:22:19;;;;;;;12.43;8.73;;;4.60;99.90;;;;;;5077702;28;20386;-76
2021/11/04 00:24:45;;;;;;;12.20;9.20;;;4.60;99.90;;;;;;5095964;28;20104;-73
2021/11/04 00:27:10;;;;;;;11.73;8.63;;;4.50;99.90;;;;;;5077424;28;20474;-74
2021/11/04 00:29:36;;;;;;;12.15;8.18;;;4.50;99.90;;;;;;5077436;28;20028;-73
2021/11/04 00:32:04;;;;;;;11.90;8.80;;;4.50;99.90;;;;;;5094151;28;20048;-73
2021/11/04 00:34:31;;;;;;;11.90;8.25;;;4.50;99.90;;;;;;5094327;28;20194;-73
2021/11/04 00:36:57;;;;;;;10.25;7.78;;;4.50;99.90;;;;;;5077414;28;20093;-73
2021/11/04 00:39:23;;;;;;;9.98;6.65;;;4.50;99.90;;;;;;5094056;28;20044;-74
2021/11/04 00:41:49;;;;;;;9.40;8.05;;;4.50;99.90;;;;;;5094255;28;20509;-74
2021/11/04 00:44:14;;;;;;;11.23;7.28;;;4.40;99.90;;;;;;5094082;28;20121;-72
2021/11/04 00:46:40;;;;;;;7.43;6.22;;;4.40;99.90;;;;;;5077117;28;20107;-73
2021/11/04 00:49:06;;;;;;;8.15;6.85;;;4.30;99.90;;;;;;5077006;28;20046;-74
2021/11/04 00:51:32;;;;;;;10.88;7.55;;;4.30;99.90;;;;;;5093947;28;20016;-73
2021/11/04 00:53:58;;;;;;;8.05;7.25;;;4.20;99.90;;;;;;5077086;28;20028;-74
2021/11/04 00:56:23;;;;;;;9.52;7.57;;;4.20;99.90;;;;;;5093883;28;20102;-72
2021/11/04 00:58:49;;;;;;;7.78;6.95;;;4.10;99.90;;;;;;5076969;28;20034;-73
2021/11/04 01:01:19;;;;;;;8.70;6.70;;;4.10;99.90;;;;;;5093796;28;20012;-73
2021/11/04 01:03:46;;;;;;;8.13;6.85;;;4.10;99.90;;;;;;5095043;28;20016;-73
2021/11/04 01:06:11;;;;;;;9.18;7.07;;;4.10;99.90;;;;;;5076720;28;20020;-74
2021/11/04 01:08:37;;;;;;;7.95;6.47;;;4.00;99.90;;;;;;5093600;28;20096;-72
2021/11/04 01:11:03;;;;;;;7.53;5.65;;;4.00;99.90;;;;;;5093606;28;20024;-74
2021/11/04 01:13:29;;;;;;;7.85;7.00;;;3.90;99.90;;;;;;5093520;28;20028;-72
2021/11/04 01:15:55;;;;;;;8.77;7.28;;;3.90;99.90;;;;;;5093411;28;20176;-72
2021/11/04 01:18:20;;;;;;;8.35;6.85;;;3.90;99.90;;;;;;5093381;28;20104;-73
2021/11/04 01:20:46;;;;;;;9.48;7.00;;;3.80;99.90;;;;;;5076220;28;20044;-74
2021/11/04 01:23:12;;;;;;;8.38;6.63;;;3.80;99.90;;;;;;5075663;28;20413;-73
2021/11/04 01:25:37;;;;;;;10.35;8.00;;;3.80;99.90;;;;;;5093295;28;20036;-71
2021/11/04 01:28:08;;;;;;;8.25;7.35;;;3.80;99.90;;;;;;5076214;28;20119;-72
2021/11/04 01:30:34;;;;;;;8.77;6.68;;;3.70;99.90;;;;;;5093235;28;20343;-71
2021/11/04 01:33:00;;;;;;;8.73;6.28;;;3.60;99.90;;;;;;5076181;28;20031;-71
2021/11/04 01:35:25;;;;;;;7.85;7.05;;;3.60;99.90;;;;;;5093083;28;20032;-73
2021/11/04 01:37:51;;;;;;;8.32;6.68;;;3.60;99.90;;;;;;5093181;28;20471;-72
2021/11/04 01:40:17;;;;;;;8.70;7.05;;;3.50;99.90;;;;;;5076015;28;20055;-70
2021/11/04 01:42:42;;;;;;;7.63;6.35;;;3.50;99.90;;;;;;5075827;28;20463;-72
2021/11/04 01:45:08;;;;;;;7.93;6.63;;;3.50;99.90;;;;;;5092810;28;20051;-70
2021/11/04 01:47:35;;;;;;;7.32;6.10;;;3.50;99.90;;;;;;5075792;28;20059;-72
2021/11/04 01:50:00;;;;;;;8.10;6.75;;;3.50;99.90;;;;;;5092651;28;20074;-71
2021/11/04 01:52:26;;;;;;;7.25;6.28;;;3.50;99.90;;;;;;5092760;28;20040;-71
2021/11/04 01:54:51;;;;;;;7.75;6.75;;;3.40;99.90;;;;;;5094413;28;20024;-72
2021/11/04 01:57:17;;;;;;;8.95;6.72;;;3.40;99.90;;;;;;5093664;28;20165;-72
2021/11/04 01:59:43;;;;;;;7.85;6.82;;;3.40;99.90;;;;;;5093317;28;20352;-71
2021/11/04 02:02:17;;;;;;;8.75;6.80;;;3.40;99.90;;;;;;5092840;28;20169;-69
2021/11/04 02:05:03;;;;;;;;;;;3.30;99.90;;;;;;5076063;28;20035;-72
2021/11/04 02:07:41;;;;;;;8.55;6.03;;;3.40;99.90;;;;;;5075645;28;20019;-71
2021/11/04 02:10:15;;;;;;;9.18;6.07;;;3.40;99.90;;;;;;5092476;28;20032;-72
2021/11/04 02:13:01;;;;;;;6.68;6.05;;;3.40;99.90;;;;;;5092307;28;20424;-72
2021/11/04 02:15:27;;;;;;;7.50;6.80;;;3.30;99.90;;;;;;5092393;28;20027;-71
2021/11/04 02:17:54;;;;;;;10.48;6.50;;;3.20;99.90;;;;;;5075298;28;20081;-71
2021/11/04 02:20:27;;;;;;;11.07;7.03;;;3.30;99.90;;;;;;5075094;28;20121;-71
2021/11/04 02:23:05;;;;;;;7.03;6.32;;;3.20;99.90;;;;;;5075203;28;20077;-71
2021/11/04 02:25:32;;;;;;;6.78;6.07;;;3.30;99.90;;;;;;5075196;28;20127;-72
2021/11/04 02:28:01;;;;;;;6.63;5.68;;;3.50;99.90;;;;;;5092018;28;20544;-72
2021/11/04 02:30:28;;;;;;;6.50;5.75;;;3.30;99.90;;;;;;5091976;28;20020;-72
2021/11/04 02:32:54;;;;;;;6.72;5.47;;;3.40;99.90;;;;;;5092080;28;20020;-71
2021/11/04 02:35:21;;;;;;;7.00;6.32;;;3.20;99.90;;;;;;5074957;28;20500;-71
2021/11/04 02:37:47;;;;;;;6.75;6.05;;;3.20;99.90;;;;;;5091987;28;20595;-71
2021/11/04 02:40:14;;;;;;;7.28;6.25;;;3.30;99.90;;;;;;5074828;28;20402;-72
2021/11/04 02:42:41;;;;;;;6.07;5.47;;;3.20;99.90;;;;;;5092268;28;20025;-72
2021/11/04 02:45:08;;;;;;;5.80;5.20;;;3.20;99.90;;;;;;5091891;28;20036;-70
2021/11/04 02:47:38;;;;;;;6.50;5.90;;;3.20;99.90;;;;;;5074982;28;20039;-72
2021/11/04 02:50:08;;;;;;;6.72;6.03;;;3.20;99.90;;;;;;5092066;28;20478;-71
2021/11/04 02:52:34;;;;;;;6.18;5.43;;;3.10;99.90;;;;;;5091723;28;20439;-71
2021/11/04 02:55:03;;;;;;;6.28;5.68;;;3.10;99.90;;;;;;5091719;28;20019;-71
2021/11/04 02:57:29;;;;;;;6.90;6.20;;;3.10;99.90;;;;;;5075067;28;20436;-71
2021/11/04 02:59:55;;;;;;;6.65;5.90;;;3.10;99.90;;;;;;5093041;28;20479;-72
2021/11/04 03:02:21;;;;;;;7.45;6.50;;;3.10;99.90;;;;;;5092142;28;20065;-71
2021/11/04 03:04:47;;;;;;;5.97;5.32;;;3.10;99.90;;;;;;5091604;28;20420;-70
2021/11/04 03:07:12;;;;;;;10.00;5.80;;;3.10;99.90;;;;;;5074647;28;20039;-71
2021/11/04 03:09:38;;;;;;;5.97;5.38;;;3.10;99.90;;;;;;5074581;28;20062;-71
2021/11/04 03:12:05;;;;;;;5.55;5.00;;;3.00;99.90;;;;;;5091918;28;20028;-70
2021/11/04 03:14:31;;;;;;;5.63;5.13;;;3.10;99.90;;;;;;5091518;28;20064;-71
2021/11/04 03:16:59;;;;;;;6.88;5.43;;;3.10;99.90;;;;;;5074607;28;20056;-71
2021/11/04 03:19:25;;;;;;;6.13;5.53;;;3.10;99.90;;;;;;5091484;28;20039;-71
2021/11/04 03:21:53;;;;;;;7.13;6.30;;;3.10;99.90;;;;;;5074391;28;20036;-71
2021/11/04 03:24:21;;;;;;;7.10;6.40;;;3.10;99.90;;;;;;5074481;28;20486;-71
2021/11/04 03:26:51;;;;;;;5.97;5.43;;;3.20;99.90;;;;;;5074800;28;20016;-72
2021/11/04 03:29:19;;;;;;;6.95;5.57;;;3.30;99.90;;;;;;5074331;28;20498;-72
2021/11/04 03:31:46;;;;;;;6.30;5.68;;;3.40;99.90;;;;;;5091319;28;20019;-72
2021/11/04 03:34:12;;;;;;;6.45;5.82;;;3.50;99.90;;;;;;5091351;28;20040;-71
2021/11/04 03:36:40;;;;;;;6.72;5.55;;;3.70;99.90;;;;;;5074447;28;20020;-72
2021/11/04 03:39:06;;;;;;;6.70;6.05;;;3.70;99.90;;;;;;5074312;28;20502;-72
2021/11/04 03:41:33;;;;;;;8.15;5.40;;;3.70;99.90;;;;;;5091142;28;20086;-72
2021/11/04 03:43:59;;;;;;;7.57;6.72;;;3.80;99.90;;;;;;5091473;28;20077;-72
2021/11/04 03:46:25;;;;;;;6.22;5.63;;;3.80;99.90;;;;;;5075634;28;20020;-72
2021/11/04 03:48:52;;;;;;;7.90;6.22;;;3.80;99.90;;;;;;5078079;28;20509;-72
2021/11/04 03:51:19;;;;;;;6.43;5.72;;;3.90;99.90;;;;;;5095015;28;20474;-71
2021/11/04 03:53:45;;;;;;;7.78;6.07;;;3.90;99.90;;;;;;5078004;28;20020;-72
2021/11/04 03:56:11;;;;;;;6.20;5.60;;;3.90;99.90;;;;;;5094799;28;20020;-72
2021/11/04 03:58:41;;;;;;;5.53;5.00;;;3.80;99.90;;;;;;5095087;28;20052;-72
2021/11/04 04:01:07;;;;;;;7.22;5.55;;;3.80;99.90;;;;;;5094901;28;20028;-72
2021/11/04 04:03:33;;;;;;;6.32;5.68;;;3.70;99.90;;;;;;5077682;28;20394;-73
2021/11/04 04:06:02;;;;;;;6.15;5.55;;;3.70;99.90;;;;;;5094699;28;20031;-72
2021/11/04 04:08:30;;;;;;;6.20;5.57;;;3.70;99.90;;;;;;5094472;28;20062;-72
2021/11/04 04:10:55;;;;;;;7.40;6.00;;;3.60;99.90;;;;;;5094613;28;20047;-72
2021/11/04 04:13:21;;;;;;;8.05;6.10;;;3.60;99.90;;;;;;5077678;28;20470;-73
2021/11/04 04:15:47;;;;;;;8.15;5.65;;;3.60;99.90;;;;;;5094839;28;20038;-72
2021/11/04 04:18:12;;;;;;;6.75;5.45;;;3.50;99.90;;;;;;5094548;28;20024;-73
2021/11/04 04:20:38;;;;;;;6.28;5.68;;;3.50;99.90;;;;;;5094516;28;20157;-72
2021/11/04 04:23:04;;;;;;;6.10;5.50;;;3.50;99.90;;;;;;5077534;28;20089;-71
2021/11/04 04:25:30;;;;;;;7.05;6.03;;;3.50;99.90;;;;;;5094684;28;20032;-71
2021/11/04 04:27:56;;;;;;;6.90;4.80;;;3.60;99.90;;;;;;5077934;28;20028;-72
2021/11/04 04:30:22;;;;;;;7.07;5.10;;;3.60;99.90;;;;;;5077468;28;20016;-72
2021/11/04 04:32:48;;;;;;;7.55;5.68;;;3.60;99.90;;;;;;5077430;28;20368;-72
2021/11/04 04:35:14;;;;;;;6.43;5.82;;;3.60;99.90;;;;;;5077345;28;20475;-72
2021/11/04 04:37:39;;;;;;;6.25;5.55;;;3.70;99.90;;;;;;5094552;28;20067;-70
2021/11/04 04:40:06;;;;;;;10.75;6.65;;;3.70;99.90;;;;;;5077327;28;20036;-76
2021/11/04 04:42:31;;;;;;;8.68;5.95;;;3.90;99.90;;;;;;5078401;28;20061;-81
2021/11/04 04:44:57;;;;;;;7.68;5.57;;;4.00;99.90;;;;;;5096086;28;20386;-81
2021/11/04 04:47:23;;;;;;;6.85;5.13;;;4.10;99.90;;;;;;5080269;28;20032;-84
2021/11/04 04:49:48;;;;;;;6.35;4.90;;;4.30;99.90;;;;;;5077978;28;20035;-75
2021/11/04 04:52:14;;;;;;;5.22;4.72;;;4.50;99.90;;;;;;5094117;28;20024;-75
2021/11/04 04:54:40;;;;;;;5.47;4.30;;;4.70;99.90;;;;;;5094172;28;20028;-73
2021/11/04 04:57:06;;;;;;;7.72;5.88;;;4.80;99.90;;;;;;5093474;28;20509;-75
2021/11/04 04:59:32;;;;;;;5.03;4.15;;;5.00;99.90;;;;;;5076193;28;20036;-76
2021/11/04 05:01:57;;;;;;;5.82;4.90;;;5.10;99.90;;;;;;5077004;28;20102;-75
2021/11/04 05:04:23;;;;;;;6.22;4.55;;;5.20;99.90;;;;;;5093751;28;20047;-75
2021/11/04 05:06:49;;;;;;;5.72;4.72;;;5.30;99.90;;;;;;5094026;28;20390;-75
2021/11/04 05:09:15;;;;;;;5.80;4.18;;;5.30;99.90;;;;;;5093844;28;20038;-75
2021/11/04 05:11:40;;;;;;;8.82;4.57;;;5.40;99.90;;;;;;5093972;28;20073;-75
2021/11/04 05:14:06;;;;;;;7.97;4.78;;;5.40;99.90;;;;;;5076711;28;20028;-74
2021/11/04 05:16:32;;;;;;;7.07;4.85;;;5.40;99.90;;;;;;5093744;28;20107;-77
2021/11/04 05:18:58;;;;;;;5.93;5.07;;;5.40;99.90;;;;;;5093418;28;20036;-76
2021/11/04 05:21:23;;;;;;;6.20;5.18;;;5.50;99.90;;;;;;5076563;28;20044;-76
2021/11/04 05:23:51;;;;;;;7.80;4.57;;;5.50;99.90;;;;;;5060270;28;20162;-74
2021/11/04 05:26:17;;;;;;;5.53;4.53;;;5.50;99.90;;;;;;5076401;28;20021;-75
2021/11/04 05:28:42;;;;;;;8.18;3.72;;;5.50;99.90;;;;;;5059843;28;20119;-75
2021/11/04 05:31:08;;;;;;;4.47;4.07;;;5.60;99.90;;;;;;5076855;28;20386;-75
2021/11/04 05:33:34;;;;;;;5.95;4.03;;;5.60;99.90;;;;;;5093652;28;20028;-77
2021/11/04 05:35:59;;;;;;;8.85;4.40;;;5.60;99.90;;;;;;5093909;28;20506;-75
2021/11/04 05:38:25;;;;;;;5.22;4.55;;;5.70;99.90;;;;;;5076457;28;20039;-77
2021/11/04 05:40:50;;;;;;;4.88;3.80;;;5.70;99.90;;;;;;5076840;28;20085;-76
2021/11/04 05:43:16;;;;;;;7.28;4.60;;;5.80;99.90;;;;;;5095218;28;20131;-77
2021/11/04 05:45:42;;;;;;;6.50;4.70;;;5.80;99.90;;;;;;5079184;28;20427;-76
2021/11/04 05:48:07;;;;;;;7.18;4.18;;;5.90;99.90;;;;;;5080087;28;20027;-77
2021/11/04 05:50:33;;;;;;;9.40;4.80;;;5.90;99.90;;;;;;5081461;28;20396;-78
2021/11/04 05:53:00;;;;;;;6.05;4.45;;;6.00;99.90;;;;;;5102877;28;20039;-77
2021/11/04 05:55:26;;;;;;;5.30;4.18;;;6.00;99.90;;;;;;5105751;28;20016;-78
2021/11/04 05:57:51;;;;;;;10.60;4.45;;;6.10;99.90;;;;;;5088083;28;20048;-76
2021/11/04 06:00:17;;;;;;;7.78;4.00;;;6.10;99.90;;;;;;5082651;28;20067;-76
2021/11/04 06:02:42;;;;;;;6.45;4.00;;;6.10;99.90;;;;;;5084501;28;20021;-77
2021/11/04 06:05:08;;;;;;;5.75;3.90;;;6.20;99.90;;;;;;5096219;28;20035;-77
2021/11/04 06:07:34;;;;;;;6.78;4.25;;;6.20;99.90;;;;;;5093790;28;20029;-76
2021/11/04 06:10:00;;;;;;;3.53;2.92;;;6.30;99.90;;;;;;5076024;28;20035;-77
2021/11/04 06:12:26;;;;;;;4.95;3.03;;;6.30;99.90;;;;;;5092954;28;20031;-77
2021/11/04 06:14:51;;;;;;;3.67;2.95;;;6.40;99.90;;;;;;5093799;28;20387;-79
2021/11/04 06:17:17;;;;;;;3.25;2.70;;;6.50;99.90;;;;;;5092991;28;20035;-78
2021/11/04 06:19:43;;;;;;;1.77;1.52;;;6.50;99.90;;;;;;5092847;28;20402;-78
2021/11/04 06:22:08;;;;;;;3.95;1.90;;;6.90;99.90;;;;;;5092324;28;20044;-77
2021/11/04 06:24:34;;;;;;;4.22;2.03;;;6.80;99.90;;;;;;5092579;28;20417;-79
2021/11/04 06:26:59;;;;;;;2.35;1.42;;;6.80;99.90;;;;;;5092553;28;20107;-80
2021/11/04 06:29:25;;;;;;;3.38;1.08;;;6.80;99.90;;;;;;5092409;28;20027;-79
2021/11/04 06:31:51;;;;;;;2.03;1.48;;;6.90;99.90;;;;;;5093652;28;20020;-78
2021/11/04 06:34:16;;;;;;;3.35;1.08;;;6.90;99.90;;;;;;5075499;28;20036;-79
2021/11/04 06:36:43;;;;;;;4.22;1.48;;;7.00;99.90;;;;;;5074884;28;20032;-79
2021/11/04 06:39:09;;;;;;;2.28;0.63;;;7.10;99.90;;;;;;5075202;28;20436;-78
2021/11/04 06:41:34;;;;;;;1.00;0.55;;;7.20;99.90;;;;;;5092189;28;20028;-78
2021/11/04 06:44:00;;;;;;;2.25;0.70;;;7.20;99.90;;;;;;5075218;28;20016;-75
2021/11/04 06:46:26;;;;;;;2.33;1.05;;;7.20;99.90;;;;;;5093441;28;20035;-83
2021/11/04 06:49:21;;;;;;;5.00;1.55;;;7.30;99.90;;;;;;5094086;28;20012;-84
2021/11/04 06:51:48;;;;;;;1.85;0.63;;;7.30;99.90;;;;;;5090103;28;20032;-85
2021/11/04 06:54:16;;;;;;;1.40;0.70;;;7.40;99.90;;;;;;5079055;28;20027;-85
2021/11/04 06:56:46;;;;;;;2.88;0.88;;;7.40;99.90;;;;;;5078610;28;20032;-84
2021/11/04 06:59:26;;;;;;;4.88;0.85;;;7.60;99.90;;;;;;5077470;28;20402;-83
2021/11/04 07:01:56;;;;;;;3.35;0.98;;;7.60;99.90;;;;;;5095671;28;20106;-85
2021/11/04 07:04:24;;;;;;;4.22;0.85;;;7.70;99.90;;;;;;5097817;28;20047;-83
2021/11/04 07:07:00;;;;;;;4.00;1.48;;;7.80;99.90;;;;;;5095197;28;20032;-82
2021/11/04 07:09:28;;;;;;;3.90;1.02;;;7.80;99.90;;;;;;5093958;28;20027;-84
2021/11/04 07:11:56;;;;;;;4.45;0.95;;;7.80;99.90;;;;;;5075793;28;20539;-84
2021/11/04 07:14:26;;;;;;;4.78;1.00;;;8.00;99.90;;;;;;5075923;28;20479;-86
2021/11/04 07:16:52;;;;;;;4.30;1.05;;;8.10;99.90;;;;;;5094438;28;20424;-85
2021/11/04 07:19:19;;;;;;;4.53;1.38;;;8.50;99.90;;;;;;5091809;28;20155;-81
2021/11/04 07:22:02;;;;;;;4.75;0.80;;;8.40;99.90;;;;;;5077263;28;20048;-79
2021/11/04 07:24:34;;;;;;;3.70;1.05;;;8.50;99.90;;;;;;5096413;28;20036;-83
2021/11/04 07:27:14;;;;;;;0.90;0.57;;;8.60;99.90;;;;;;5096217;28;20024;-83
2021/11/04 07:29:42;;;;;;;19.88;2.50;;;8.80;99.90;;;;;;5095795;28;20550;-76
2021/11/04 07:32:09;;;;;;;6.25;1.52;;;8.90;99.90;;;;;;5096243;28;20023;-77
2021/11/04 07:34:35;;;;;;;1.98;0.82;;;9.00;99.90;;;;;;5078739;28;20084;-73
2021/11/04 07:37:01;;;;;;;2.38;1.00;;;9.10;99.90;;;;;;5095801;28;20387;-73
2021/11/04 07:39:26;;;;;;;3.25;1.20;;;9.10;99.90;;;;;;5078313;28;20573;-75
2021/11/04 07:41:53;;;;;;;4.28;0.80;;;9.20;99.90;;;;;;5078652;28;20432;-79
2021/11/04 07:44:19;;;;;;;1.27;0.60;;;9.20;99.90;;;;;;5080160;28;20020;-82
2021/11/04 07:46:44;;;;;;;7.00;1.25;;;9.30;99.90;;;;;;5096216;28;20031;-75
2021/11/04 07:49:10;;;;;;;1.92;0.70;;;9.10;99.90;;;;;;5079104;28;20024;-75
2021/11/04 07:51:36;;;;;;;1.60;0.98;;;9.10;99.90;;;;;;5095642;28;20485;-75
2021/11/04 07:54:03;;;;;;;4.20;0.80;;;9.20;99.90;;;;;;5095637;28;20074;-82
2021/11/04 07:56:29;;;;;;;2.38;0.88;;;9.60;99.90;;;;;;5078807;28;20062;-81
2021/11/04 07:58:54;;;;;;;2.55;0.63;;;9.70;99.90;;;;;;5086773;28;20400;-82
2021/11/04 08:01:21;;;;;;;1.92;0.70;;;9.90;99.90;;;;;;5088716;28;20052;-83
2021/11/04 08:03:47;;;;;;;3.90;0.75;;;10.00;99.90;;;;;;5104937;28;20025;-84
2021/11/04 08:06:12;;;;;;;18.92;0.82;;;10.10;99.90;;;;;;5086919;28;20020;-83
2021/11/04 08:08:39;;;;;;;5.78;1.45;;;10.50;99.90;;;;;;5102200;28;20438;-84
2021/11/04 08:11:04;;;;;;;2.33;0.50;;;10.80;99.90;;;;;;5082550;28;20036;-84
2021/11/04 08:13:31;;;;;;;3.28;0.80;;;11.00;99.90;;;;;;5085733;28;20024;-92
2021/11/04 08:15:57;;;;;;;3.00;0.60;;;11.10;99.90;;;;;;5093656;28;20035;-89
2021/11/04 08:18:24;;;;;;;4.97;0.75;;;11.20;99.90;;;;;;5085524;28;20032;-88
2021/11/04 08:20:50;;;;;;;1.13;0.50;;;11.30;99.90;;;;;;5098409;28;20071;-86
2021/11/04 08:23:16;;;;;;;2.85;1.30;;;11.80;99.90;;;;;;5082230;28;20106;-86
2021/11/04 08:25:43;;;;;;;3.60;0.95;;;12.40;99.90;;;;;;5080601;28;20097;-85
2021/11/04 08:28:09;;;;;;;2.05;0.50;;;12.60;99.90;;;;;;5080758;28;20081;-82
2021/11/04 08:30:35;;;;;;;2.10;0.60;;;13.00;99.90;;;;;;5096262;28;20028;-82
2021/11/04 08:33:01;;;;;;;2.88;0.70;;;13.20;99.90;;;;;;5095231;28;20095;-81
2021/11/04 08:35:27;;;;;;;4.05;0.70;;;13.30;99.90;;;;;;5095833;28;20389;-78
2021/11/04 08:37:53;;;;;;;5.75;1.00;;;13.90;99.90;;;;;;5078908;28;20024;-80
2021/11/04 08:40:19;;;;;;;3.13;0.82;;;14.80;99.90;;;;;;5078775;28;20455;-82
2021/11/04 08:42:44;;;;;;;3.20;0.60;;;15.60;99.90;;;;;;5077945;28;20028;-80
2021/11/04 08:45:10;;;;;;;5.85;0.80;;;15.90;99.90;;;;;;5077672;28;20056;-82
2021/11/04 08:47:37;;;;;;;2.65;0.82;;;15.80;99.90;;;;;;5094939;28;20008;-79
2021/11/04 08:50:05;;;;;;;6.45;1.05;;;15.70;99.90;;;;;;5077885;28;20052;-77
2021/11/04 08:52:31;;;;;;;6.82;1.15;;;15.50;99.90;;;;;;5095004;28;20027;-81
2021/11/04 08:54:56;;;;;;;5.68;0.80;;;15.20;99.90;;;;;;5094604;28;20032;-79
2021/11/04 08:57:22;;;;;;;1.85;1.05;;;14.90;99.90;;;;;;5095593;28;20032;-70
2021/11/04 08:59:48;;;;;;;4.53;0.85;;;14.50;99.90;;;;;;5094097;28;20064;-73
2021/11/04 09:02:16;;;;;;;2.28;0.57;;;14.30;99.90;;;;;;5093946;28;20024;-70
2021/11/04 09:04:43;;;;;;;1.42;0.55;;;14.50;99.90;;;;;;5077019;28;20024;-76
2021/11/04 09:07:16;;;;;;;4.85;0.95;;;15.20;99.90;;;;;;5077111;28;20467;-76
2021/11/04 09:09:42;;;;;;;3.88;0.73;;;16.10;99.90;;;;;;5093991;28;20039;-76
2021/11/04 09:12:08;;;;;;;4.35;0.82;;;17.10;99.90;;;;;;5077293;28;20479;-73
2021/11/04 09:14:35;;;;;;;2.28;1.05;;;17.80;99.90;;;;;;5095159;28;20020;-75
2021/11/04 09:17:01;;;;;;;4.07;0.75;;;18.40;99.90;;;;;;5077170;28;20024;-74
2021/11/04 09:19:27;;;;;;;5.38;0.80;;;18.80;99.90;;;;;;5094083;28;20028;-75
2021/11/04 09:21:52;;;;;;;3.70;0.90;;;19.30;99.90;;;;;;5076861;28;20384;-76
2021/11/04 09:24:18;;;;;;;4.80;1.33;;;19.50;99.90;;;;;;5077634;28;20035;-71
2021/11/04 09:26:44;;;;;;;1.08;0.50;;;19.60;99.90;;;;;;5093582;28;20470;-75
2021/11/04 09:29:10;;;;;;;4.13;0.50;;;19.30;99.90;;;;;;5095311;28;20074;-72
2021/11/04 09:31:35;;;;;;;0.93;0.40;;;19.00;99.90;;;;;;5093483;28;20016;-74
2021/11/04 09:34:01;;;;;;;3.08;0.60;;;18.50;99.90;;;;;;5076493;28;20047;-71
2021/11/04 09:36:28;;;;;;;1.30;0.40;;;18.20;99.90;;;;;;5076411;28;20340;-72
2021/11/04 09:38:55;;;;;;;1.70;0.35;;;17.40;99.90;;;;;;5076670;28;20031;-72
2021/11/04 09:41:21;;;;;;;3.70;0.90;;;16.80;99.90;;;;;;5094925;28;20024;-74
2021/11/04 09:43:47;;;;;;;1.90;0.30;;;16.80;99.90;;;;;;5094451;28;20055;-72
2021/11/04 09:46:13;;;;;;;2.78;0.40;;;16.60;99.90;;;;;;5083810;28;20034;-71
2021/11/04 09:48:39;;;;;;;0.50;0.17;;;16.20;99.90;;;;;;5084821;28;20119;-70
2021/11/04 09:51:06;;;;;;;4.55;0.50;;;16.20;99.90;;;;;;5105145;28;20374;-71
2021/11/04 09:53:32;;;;;;;0.75;0.20;;;16.20;99.90;;;;;;5096445;28;20047;-73
2021/11/04 09:55:59;;;;;;;2.05;0.40;;;16.40;99.90;;;;;;5082916;28;20024;-71
2021/11/04 09:58:25;;;;;;;0.80;0.52;;;15.90;99.90;;;;;;5077452;28;20119;-74
2021/11/04 10:00:50;;;;;;;2.42;0.40;;;14.90;99.90;;;;;;5094840;28;20113;-73
2021/11/04 10:03:16;;;;;;;7.28;1.20;;;14.00;99.90;;;;;;5093727;28;20024;-73
2021/11/04 10:05:48;;;;;;;1.95;0.60;;;13.20;99.90;;;;;;5093788;28;20031;-72
2021/11/04 10:08:16;;;;;;;1.00;0.30;;;12.80;99.90;;;;;;5076517;28;20028;-72
2021/11/04 10:10:43;;;;;;;1.15;0.43;;;12.70;99.90;;;;;;5076665;28;20046;-72
2021/11/04 10:13:11;;;;;;;5.03;0.70;;;12.40;99.90;;;;;;5092876;28;20032;-72
2021/11/04 10:15:39;;;;;;;5.22;1.58;;;12.10;99.90;;;;;;5094285;28;20020;-72
2021/11/04 10:18:18;;;;;;;1.80;0.47;;;11.90;99.90;;;;;;5092772;28;20417;-71
2021/11/04 10:21:04;;;;;;;2.80;0.52;;;11.80;99.90;;;;;;5092484;28;20430;-71
2021/11/04 10:23:45;;;;;;;2.83;0.68;;;11.70;99.90;;;;;;5092038;28;20067;-70
2021/11/04 10:26:14;;;;;;;4.45;1.08;;;11.70;99.90;;;;;;5093599;28;20360;-72
2021/11/04 10:28:42;;;;;;;4.57;0.57;;;11.60;99.90;;;;;;5092423;28;20103;-72
2021/11/04 10:31:18;;;;;;;2.80;0.63;;;11.50;99.90;;;;;;5092636;28;20020;-72
2021/11/04 10:33:49;;;;;;;1.65;0.40;;;11.40;99.90;;;;;;5092511;28;20016;-71
2021/11/04 10:36:20;;;;;;;0.95;0.50;;;11.30;99.90;;;;;;5075458;28;20449;-75
2021/11/04 10:38:49;;;;;;;1.73;0.93;;;11.20;99.90;;;;;;5092413;28;20032;-69
2021/11/04 10:41:30;;;;;;;3.45;0.52;;;11.20;99.90;;;;;;5092120;28;20120;-70
2021/11/04 10:44:10;;;;;;;0.35;0.28;;;11.20;99.90;;;;;;5092430;28;20016;-71
2021/11/04 10:46:41;;;;;;;3.28;1.02;;;11.10;99.90;;;;;;5092159;28;20024;-71
2021/11/04 10:49:07;;;;;;;1.88;0.47;;;11.10;99.90;;;;;;5092247;28;20414;-71
2021/11/04 10:51:33;;;;;;;0.90;0.50;;;11.10;99.90;;;;;;5075173;28;20467;-73
2021/11/04 10:54:19;;;;;;;2.17;0.93;;;11.00;99.90;;;;;;5092401;28;20077;-71
2021/11/04 10:56:46;;;;;;;1.75;0.73;;;11.10;99.90;;;;;;5091704;28;20028;-71
2021/11/04 10:59:17;;;;;;;3.85;0.50;;;11.00;99.90;;;;;;5091977;28;20120;-71
2021/11/04 11:01:43;;;;;;;4.82;0.85;;;11.00;99.90;;;;;;5092016;28;20104;-72
2021/11/04 11:04:17;;;;;;;1.42;0.52;;;11.10;99.90;;;;;;5093185;28;20490;-71
2021/11/04 11:06:48;;;;;;;2.78;0.52;;;11.10;99.90;;;;;;5092213;28;20020;-71
2021/11/04 11:09:19;;;;;;;2.10;0.47;;;11.00;99.90;;;;;;5093091;28;20028;-70
2021/11/04 11:11:47;;;;;;;1.85;0.50;;;11.00;99.90;;;;;;5091870;28;20020;-69
2021/11/04 11:14:15;;;;;;;1.05;0.60;;;11.10;99.90;;;;;;5091850;28;20024;-70
2021/11/04 11:16:52;;;;;;;1.05;0.60;;;11.00;99.90;;;;;;5091806;28;20026;-70
2021/11/04 11:19:21;;;;;;;1.45;0.60;;;11.20;99.90;;;;;;5074920;28;20036;-70
2021/11/04 11:21:51;;;;;;;2.20;0.50;;;11.20;99.90;;;;;;5074646;28;20048;-68
2021/11/04 11:24:18;;;;;;;3.25;0.73;;;11.20;99.90;;;;;;5075246;28;20128;-71
2021/11/04 11:26:45;;;;;;;1.20;0.40;;;11.20;99.90;;;;;;5074451;28;20030;-69
2021/11/04 11:29:11;;;;;;;0.30;0.30;;;11.10;99.90;;;;;;5074766;28;20031;-71
2021/11/04 11:31:47;;;;;;;0.30;0.30;;;11.10;99.90;;;;;;5091551;28;20012;-68
2021/11/04 11:34:17;;;;;;;2.72;0.57;;;11.20;99.90;;;;;;5074696;28;20041;-68
2021/11/04 11:37:10;;;;;;;1.25;1.00;;;11.10;99.90;;;;;;5074774;28;20031;-68
2021/11/04 11:39:41;;;;;;;0.65;0.65;;;11.20;99.90;;;;;;5091826;28;20081;-68
2021/11/04 11:42:10;;;;;;;1.20;0.40;;;11.20;99.90;;;;;;5091900;28;20044;-70
2021/11/04 11:44:40;;;;;;;0.45;0.45;;;11.30;99.90;;;;;;5093107;28;20023;-69
2021/11/04 11:47:08;;;;;;;1.45;0.47;;;11.30;99.90;;;;;;5091368;28;20017;-71
2021/11/04 11:49:36;;;;;;;5.07;1.98;;;11.30;99.90;;;;;;5074498;28;20020;-68
2021/11/04 11:52:02;;;;;;;3.08;0.60;;;11.30;99.90;;;;;;5074275;28;20024;-70
2021/11/04 11:54:46;;;;;;;6.72;1.20;;;11.40;99.90;;;;;;5091521;28;20410;-69
2021/11/04 11:57:14;;;;;;;5.07;1.10;;;11.50;99.90;;;;;;5093058;28;20017;-69
2021/11/04 11:59:50;;;;;;;4.43;0.90;;;11.50;99.90;;;;;;5092857;28;20414;-71
2021/11/04 12:02:34;;;;;;;4.38;1.30;;;11.60;99.90;;;;;;5091444;28;20020;-71
2021/11/04 12:05:21;;;;;;;3.00;0.65;;;11.70;99.90;;;;;;5092483;28;20024;-71
2021/11/04 12:07:52;;;;;;;1.77;0.90;;;11.70;99.90;;;;;;5094375;28;20028;-70
2021/11/04 12:10:32;;;;;;;7.20;0.65;;;11.70;99.90;;;;;;5096178;28;20065;-70
2021/11/04 12:12:59;;;;;;;3.13;0.68;;;11.90;99.90;;;;;;5094870;28;20476;-71
2021/11/04 12:15:25;;;;;;;1.75;0.55;;;11.90;99.90;;;;;;5077852;28;20097;-69
2021/11/04 12:18:11;;;;;;;4.25;1.00;;;12.00;99.90;;;;;;5094702;28;20032;-70
2021/11/04 12:20:37;;;;;;;3.45;0.70;;;12.10;99.90;;;;;;5077327;28;20048;-71
2021/11/04 12:23:03;;;;;;;2.42;0.70;;;12.10;99.90;;;;;;5077471;28;20058;-71
2021/11/04 12:25:29;;;;;;;6.15;0.90;;;12.20;99.90;;;;;;5077564;28;20479;-71
2021/11/04 12:27:58;;;;;;;4.32;0.60;;;12.30;99.90;;;;;;5077515;28;20433;-69
2021/11/04 12:30:28;;;;;;;7.63;1.17;;;12.30;99.90;;;;;;5077508;28;20422;-71
2021/11/04 12:33:10;;;;;;;1.38;0.77;;;12.30;99.90;;;;;;5094203;28;20115;-72
2021/11/04 12:35:51;;;;;;;2.42;0.85;;;12.40;99.90;;;;;;5077463;28;20119;-72
2021/11/04 12:38:37;;;;;;;0.60;0.50;;;12.60;99.90;;;;;;5094288;28;20027;-70
2021/11/04 12:41:11;;;;;;;3.05;0.93;;;12.60;99.90;;;;;;5093604;28;20581;-70
2021/11/04 12:43:37;;;;;;;3.15;1.23;;;12.60;99.90;;;;;;5077396;28;20028;-69
2021/11/04 12:46:13;;;;;;;1.70;0.80;;;12.70;99.90;;;;;;5077612;28;20515;-73
2021/11/04 12:49:11;;;;;;;2.00;0.63;;;12.70;99.90;;;;;;5094333;28;20478;-70
2021/11/04 12:51:50;;;;;;;2.63;1.15;;;12.60;99.90;;;;;;5039491;28;20077;-69
2021/11/04 12:54:36;;;;;;;0.88;0.77;;;12.50;99.90;;;;;;5077584;28;20123;-68
2021/11/04 12:57:09;;;;;;;1.00;0.75;;;12.50;99.90;;;;;;5093911;28;20099;-71